Time;durP1;ratioP1;P1;durP2;ratioP2;P2;SDS_P1;SDS_P2;PMS_P1;PMS_P2;Temp;Humidity;BMP_temperature;BMP_pressure;BME280_temperature;BME280_humidity;BME280_pressure;Samples;Min_cycle;Max_cycle;Signal;HPM_P1;HPM_P2
2022/06/05 00:01:36;;;;;;;7.32;4.35;;;;;;;14.66;69.06;101440.13;6026507;28;20041;-65
2022/06/05 00:04:48;;;;;;;7.47;4.15;;;;;;;14.54;69.78;101441.38;6040507;28;20113;-65
2022/06/05 00:07:55;;;;;;;7.72;4.13;;;;;;;14.45;69.59;101428.94;6026945;28;20477;-65
2022/06/05 00:10:54;;;;;;;7.55;4.57;;;;;;;14.36;70.44;101436.00;6026421;28;20093;-65
2022/06/05 00:13:55;;;;;;;7.28;4.38;;;;;;;14.28;71.10;101425.22;6027250;28;20042;-65
2022/06/05 00:16:50;;;;;;;9.18;4.80;;;;;;;14.36;70.90;101427.16;6029387;28;20034;-65
2022/06/05 00:19:48;;;;;;;9.77;4.87;;;;;;;14.25;71.29;101423.72;6027142;28;20069;-65
2022/06/05 00:22:44;;;;;;;10.63;4.75;;;;;;;14.42;71.48;101422.06;6025956;28;20278;-66
2022/06/05 00:25:58;;;;;;;8.27;4.57;;;;;;;14.12;71.69;101414.41;6027192;28;20038;-66
2022/06/05 00:29:09;;;;;;;8.13;4.43;;;;;;;13.99;73.67;101425.47;6057061;28;20037;-66
2022/06/05 00:32:17;;;;;;;9.95;4.90;;;;;;;13.82;73.79;101418.25;6044665;28;20470;-67
2022/06/05 00:35:16;;;;;;;9.73;5.13;;;;;;;13.88;73.60;101409.66;6025918;28;20117;-67
2022/06/05 00:38:16;;;;;;;8.25;4.93;;;;;;;13.88;73.64;101407.00;6026476;28;20042;-67
2022/06/05 00:41:30;;;;;;;10.27;4.80;;;;;;;13.80;73.72;101395.41;6024720;28;20046;-67
2022/06/05 00:44:35;;;;;;;9.38;4.70;;;;;;;13.87;74.32;101397.31;6041438;28;20393;-67
2022/06/05 00:47:32;;;;;;;11.20;4.78;;;;;;;13.66;74.62;101396.75;6033881;28;20042;-67
2022/06/05 00:50:31;;;;;;;10.45;5.40;;;;;;;13.41;75.86;101381.44;6025701;28;20038;-67
2022/06/05 00:53:26;;;;;;;10.40;4.90;;;;;;;13.30;76.04;101378.97;6026096;28;20125;-67
2022/06/05 00:56:21;;;;;;;11.93;5.27;;;;;;;13.27;76.49;101376.59;6026149;28;20042;-67
2022/06/05 00:59:18;;;;;;;8.37;4.20;;;;;;;13.32;76.90;101382.31;6028098;28;20378;-67
2022/06/05 01:02:14;;;;;;;7.72;4.20;;;;;;;13.27;77.83;101373.94;6029299;28;20556;-67
2022/06/05 01:05:12;;;;;;;8.95;4.85;;;;;;;13.30;76.86;101374.50;6026145;28;20054;-67
2022/06/05 01:08:09;;;;;;;9.13;5.28;;;;;;;13.29;77.71;101378.13;6025809;28;20038;-67
2022/06/05 01:11:07;;;;;;;13.60;6.35;;;;;;;13.18;78.04;101385.50;6025263;28;20112;-67
2022/06/05 01:14:08;;;;;;;9.40;4.72;;;;;;;13.06;78.64;101387.47;6025527;28;20629;-68
2022/06/05 01:17:17;;;;;;;9.43;4.72;;;;;;;13.00;78.83;101372.91;6039884;28;20085;-65
2022/06/05 01:20:24;;;;;;;11.57;5.15;;;;;;;13.01;78.36;101363.94;6023538;28;20042;-65
2022/06/05 01:23:39;;;;;;;;;;;;;;;12.98;78.76;101364.22;6041183;28;20038;-65
2022/06/05 01:26:38;;;;;;;9.93;5.40;;;;;;;12.83;79.41;101354.16;6033842;28;19918;-67
2022/06/05 01:29:49;;;;;;;12.93;5.35;;;;;;;12.79;79.85;101348.31;6040486;28;20409;-68
2022/06/05 01:33:02;;;;;;;12.52;5.28;;;;;;;12.77;80.29;101352.94;6024407;28;20046;-67
2022/06/05 01:36:25;;;;;;;11.13;4.82;;;;;;;12.74;79.97;101355.91;6040876;28;20030;-65
2022/06/05 01:39:31;;;;;;;9.25;5.07;;;;;;;12.75;80.27;101365.53;6023701;28;20030;-65
2022/06/05 01:42:33;;;;;;;9.98;5.43;;;;;;;12.58;80.75;101360.97;6039794;28;20050;-65
2022/06/05 01:45:37;;;;;;;10.18;5.72;;;;;;;12.62;80.44;101367.69;6024235;28;20062;-65
2022/06/05 01:48:54;;;;;;;11.85;4.93;;;;;;;12.59;80.92;101367.97;6029594;28;20061;-67
2022/06/05 01:52:15;;;;;;;11.57;5.95;;;;;;;12.48;81.10;101355.66;6023020;28;20038;-65
2022/06/05 01:55:16;;;;;;;9.60;5.10;;;;;;;12.53;81.32;101365.88;6040867;28;20041;-65
2022/06/05 01:58:13;;;;;;;10.45;5.68;;;;;;;12.62;80.45;101356.19;6056407;28;20031;-65
2022/06/05 02:01:14;;;;;;;11.70;5.32;;;;;;;12.53;81.05;101348.09;6023944;28;20466;-67
2022/06/05 02:04:16;;;;;;;8.18;4.70;;;;;;;12.79;80.07;101348.31;6024254;28;20106;-65
2022/06/05 02:07:23;;;;;;;10.43;4.45;;;;;;;12.82;79.52;101361.34;6040139;28;20038;-65
2022/06/05 02:10:24;;;;;;;10.00;4.72;;;;;;;12.61;80.00;101352.69;6023046;28;20457;-65
2022/06/05 02:13:19;;;;;;;;;;;;;;;12.49;80.69;101359.16;6024570;28;20038;-65
2022/06/05 02:16:14;;;;;;;10.50;4.93;;;;;;;12.42;81.02;101355.38;6025169;28;19956;-65
2022/06/05 02:19:16;;;;;;;8.47;5.00;;;;;;;12.30;81.33;101344.06;6029342;28;20379;-67
2022/06/05 02:22:17;;;;;;;12.27;5.50;;;;;;;12.27;81.57;101343.50;6026395;28;20058;-67
2022/06/05 02:25:15;;;;;;;11.65;5.15;;;;;;;12.44;81.25;101356.94;6028387;28;20453;-67
2022/06/05 02:28:12;;;;;;;9.60;4.90;;;;;;;12.58;80.48;101347.69;6029181;28;20038;-67
2022/06/05 02:32:02;;;;;;;9.27;4.10;;;;;;;12.63;80.20;101352.56;6028504;28;20045;-67
2022/06/05 02:35:09;;;;;;;7.72;4.72;;;;;;;12.44;79.80;101343.66;5981790;28;20097;-65
2022/06/05 02:38:20;;;;;;;10.07;5.10;;;;;;;12.37;80.36;101350.50;6023252;28;20030;-67
2022/06/05 02:41:36;;;;;;;9.50;4.60;;;;;;;12.21;80.80;101342.25;6027759;28;20093;-67
2022/06/05 02:44:54;;;;;;;10.38;4.70;;;;;;;12.26;80.59;101337.34;6044530;28;20062;-67
2022/06/05 02:48:25;;;;;;;11.52;5.47;;;;;;;12.11;80.85;101327.28;6023560;28;20046;-67
2022/06/05 02:51:28;;;;;;;10.43;5.47;;;;;;;12.13;81.27;101334.13;6027908;28;20118;-67
2022/06/05 02:54:26;;;;;;;10.57;5.28;;;;;;;12.18;80.99;101347.00;6027234;28;20074;-67
2022/06/05 02:57:21;;;;;;;12.48;4.88;;;;;;;12.11;81.32;101351.22;6029093;28;20034;-67
2022/06/05 03:00:20;;;;;;;10.20;4.23;;;;;;;12.15;81.17;101339.34;6027596;28;20069;-67
2022/06/05 03:03:27;;;;;;;10.00;4.95;;;;;;;12.19;80.81;101344.22;6028334;28;20033;-67
2022/06/05 03:06:23;;;;;;;10.98;5.25;;;;;;;12.18;80.30;101347.00;6028718;28;20039;-67
2022/06/05 03:09:18;;;;;;;14.20;5.20;;;;;;;12.11;80.39;101351.22;6028499;28;20422;-67
2022/06/05 03:12:14;;;;;;;10.35;4.03;;;;;;;11.96;81.29;101342.81;6027689;28;20061;-67
2022/06/05 03:15:10;;;;;;;8.38;4.57;;;;;;;11.97;80.69;101344.50;6027785;28;20041;-67
2022/06/05 03:18:06;;;;;;;12.70;5.40;;;;;;;12.02;80.41;101336.09;6028388;28;20077;-67
2022/06/05 03:21:01;;;;;;;11.47;4.80;;;;;;;12.00;80.34;101344.22;6027272;28;20038;-67
2022/06/05 03:23:56;;;;;;;8.37;4.87;;;;;;;11.89;80.25;101333.72;6027939;28;20058;-67
2022/06/05 03:26:52;;;;;;;8.30;4.65;;;;;;;11.98;80.53;101345.34;6027806;28;20169;-67
2022/06/05 03:29:48;;;;;;;8.63;4.57;;;;;;;11.89;80.55;101329.25;6027512;28;20031;-67
2022/06/05 03:32:44;;;;;;;8.00;4.47;;;;;;;11.91;80.78;101343.25;6026705;28;20328;-67
2022/06/05 03:35:42;;;;;;;9.13;4.47;;;;;;;11.84;80.34;101334.16;6027930;28;20030;-67
2022/06/05 03:38:38;;;;;;;7.97;4.25;;;;;;;11.83;80.17;101323.66;6027733;28;20027;-67
2022/06/05 03:41:34;;;;;;;7.70;4.30;;;;;;;11.84;80.78;101323.53;6026602;28;20034;-67
2022/06/05 03:44:29;;;;;;;8.57;4.45;;;;;;;11.88;80.28;101322.25;6027621;28;20541;-67
2022/06/05 03:47:25;;;;;;;8.33;4.43;;;;;;;11.91;80.29;101313.16;6027172;28;20070;-67
2022/06/05 03:50:20;;;;;;;8.10;4.40;;;;;;;11.90;80.21;101322.94;6026979;28;20095;-67
2022/06/05 03:53:15;;;;;;;7.60;4.50;;;;;;;11.87;79.78;101333.88;6027184;28;20034;-67
2022/06/05 03:56:14;;;;;;;7.75;4.28;;;;;;;11.85;80.19;101333.16;6027269;28;20355;-67
2022/06/05 03:59:09;;;;;;;9.02;3.95;;;;;;;11.97;79.68;101327.69;6027336;28;20121;-67
2022/06/05 04:02:05;;;;;;;9.30;4.70;;;;;;;11.99;79.09;101320.41;6026272;28;20429;-67
2022/06/05 04:05:01;;;;;;;7.78;4.25;;;;;;;12.14;79.23;101313.72;6027313;28;20364;-67
2022/06/05 04:07:56;;;;;;;8.43;4.40;;;;;;;12.14;78.78;101303.09;6027057;28;20197;-67
2022/06/05 04:10:52;;;;;;;8.20;4.20;;;;;;;12.09;78.63;101294.69;6026435;28;20514;-67
2022/06/05 04:13:47;;;;;;;7.05;4.00;;;;;;;12.23;77.87;101297.75;6026465;28;20031;-67
2022/06/05 04:16:43;;;;;;;8.15;4.50;;;;;;;12.39;77.40;101289.19;6026780;28;20058;-67
2022/06/05 04:19:38;;;;;;;8.30;4.70;;;;;;;12.57;76.36;101276.81;6026985;28;20477;-67
2022/06/05 04:22:35;;;;;;;6.72;3.80;;;;;;;13.01;74.59;101275.22;6025966;28;20277;-67
2022/06/05 04:25:30;;;;;;;9.25;3.97;;;;;;;13.34;73.21;101271.16;6026836;28;20034;-67
2022/06/05 04:28:25;;;;;;;6.53;3.53;;;;;;;13.66;72.28;101267.00;6026619;28;20034;-66
2022/06/05 04:31:30;;;;;;;6.90;4.53;;;;;;;13.70;71.69;101257.69;6025854;28;20414;-67
2022/06/05 04:34:26;;;;;;;6.65;4.20;;;;;;;14.02;71.11;101254.44;6026605;28;20030;-67
2022/06/05 04:37:21;;;;;;;7.32;3.38;;;;;;;14.07;70.32;101246.00;6026644;28;20437;-68
2022/06/05 04:40:17;;;;;;;7.47;3.60;;;;;;;14.55;69.09;101257.03;6024907;28;20729;-67
2022/06/05 04:43:13;;;;;;;7.90;3.75;;;;;;;14.57;68.08;101255.03;6026727;28;20616;-67
2022/06/05 04:46:08;;;;;;;6.30;3.88;;;;;;;14.24;69.53;101256.63;6025981;28;20037;-67
2022/06/05 04:49:06;;;;;;;7.90;4.03;;;;;;;14.27;69.89;101258.97;6026014;28;20034;-67
2022/06/05 04:52:02;;;;;;;8.23;4.05;;;;;;;14.62;68.27;101257.25;6025386;28;20023;-67
2022/06/05 04:54:57;;;;;;;7.05;3.38;;;;;;;14.48;69.05;101245.31;6026232;28;20030;-67
2022/06/05 04:57:53;;;;;;;7.93;3.77;;;;;;;15.07;65.89;101236.41;6025797;28;20053;-68
2022/06/05 05:00:48;;;;;;;8.03;3.40;;;;;;;15.27;66.70;101243.13;6025215;28;20538;-67
2022/06/05 05:03:44;;;;;;;7.57;4.50;;;;;;;15.91;64.50;101236.22;6025835;28;20053;-67
2022/06/05 05:06:41;;;;;;;5.57;3.63;;;;;;;15.51;64.96;101229.00;6025785;28;20034;-67
2022/06/05 05:09:36;;;;;;;8.50;3.70;;;;;;;15.78;64.79;101238.56;6026027;28;20038;-67
2022/06/05 05:12:32;;;;;;;7.50;3.90;;;;;;;16.03;64.37;101229.53;6024619;28;20445;-68
2022/06/05 05:15:27;;;;;;;6.47;3.45;;;;;;;16.47;62.08;101225.41;6025399;28;20034;-67
2022/06/05 05:18:23;;;;;;;6.03;3.70;;;;;;;16.29;62.91;101232.81;6025983;28;20192;-68
2022/06/05 05:21:20;;;;;;;5.53;3.60;;;;;;;16.64;62.51;101235.09;6024527;28;20077;-68
2022/06/05 05:24:16;;;;;;;5.43;3.13;;;;;;;16.82;60.93;101226.00;6025148;28;20093;-67
2022/06/05 05:27:11;;;;;;;7.10;3.40;;;;;;;16.89;61.59;101227.81;6026035;28;20510;-68
2022/06/05 05:30:09;;;;;;;7.70;3.43;;;;;;;16.99;61.43;101239.16;6024588;28;20478;-67
2022/06/05 05:33:04;;;;;;;6.82;3.28;;;;;;;16.79;61.88;101237.91;6023943;28;20038;-67
2022/06/05 05:35:59;;;;;;;6.30;3.47;;;;;;;17.29;60.76;101240.16;6025762;28;20042;-68
2022/06/05 05:42:11;;;;;;;7.82;3.20;;;;;;;17.95;59.16;101244.09;6024503;28;20495;-67
2022/06/05 05:45:07;;;;;;;4.78;2.95;;;;;;;18.22;57.58;101243.50;6025294;28;20494;-67
2022/06/05 05:48:02;;;;;;;6.30;3.50;;;;;;;17.94;58.42;101247.81;6025479;28;20104;-67
2022/06/05 05:50:58;;;;;;;5.97;3.53;;;;;;;18.11;57.68;101238.56;6023945;28;20030;-67
2022/06/05 05:53:53;;;;;;;5.57;3.03;;;;;;;18.01;57.15;101240.69;6038243;28;20064;-67
2022/06/05 05:56:48;;;;;;;6.07;2.60;;;;;;;18.41;56.59;101253.72;6044229;28;20062;-67
2022/06/05 05:59:44;;;;;;;6.43;3.70;;;;;;;17.93;56.97;101252.34;6031009;28;20794;-67
2022/06/05 06:02:39;;;;;;;4.75;3.10;;;;;;;18.68;55.63;101255.81;6028812;28;20045;-67
2022/06/05 06:05:34;;;;;;;6.03;3.13;;;;;;;18.79;55.92;101252.66;6029911;28;20090;-67
2022/06/05 06:08:31;;;;;;;5.10;3.27;;;;;;;18.77;55.63;101249.31;6030108;28;20034;-67
2022/06/05 06:11:27;;;;;;;5.97;3.38;;;;;;;19.01;54.67;101243.66;6031653;28;20443;-67
2022/06/05 06:14:23;;;;;;;5.97;3.30;;;;;;;18.45;55.98;101246.97;6029591;28;20034;-67
2022/06/05 06:17:19;;;;;;;4.97;3.13;;;;;;;18.45;56.82;101239.72;6029900;28;20038;-67
2022/06/05 06:20:14;;;;;;;5.85;2.90;;;;;;;19.14;56.06;101228.69;6031256;28;20103;-68
2022/06/05 06:23:10;;;;;;;6.80;3.72;;;;;;;19.52;54.22;101222.94;6028620;28;20038;-67
2022/06/05 06:26:06;;;;;;;5.77;3.27;;;;;;;19.20;55.63;101219.84;6029655;28;20040;-67
2022/06/05 06:29:01;;;;;;;6.43;3.35;;;;;;;19.42;54.84;101224.28;6029491;28;20030;-67
2022/06/05 06:31:57;;;;;;;5.47;3.50;;;;;;;19.62;53.84;101217.25;6036472;28;20034;-67
2022/06/05 06:34:52;;;;;;;7.25;3.22;;;;;;;19.89;53.11;101204.84;6047300;28;20478;-68
2022/06/05 06:37:47;;;;;;;7.23;3.67;;;;;;;19.89;53.44;101213.78;6029175;28;20080;-67
2022/06/05 06:40:42;;;;;;;6.30;4.23;;;;;;;20.16;53.45;101204.84;6028087;28;20088;-67
2022/06/05 06:43:39;;;;;;;4.80;3.37;;;;;;;20.33;53.55;101204.59;6025208;28;20116;-67
2022/06/05 06:46:36;;;;;;;6.70;3.35;;;;;;;20.33;52.91;101200.03;6028480;28;20058;-67
2022/06/05 06:49:33;;;;;;;5.03;3.38;;;;;;;20.08;54.07;101205.00;6028705;28;20050;-67
2022/06/05 06:52:29;;;;;;;6.20;3.42;;;;;;;20.47;52.06;101206.31;6030210;28;20117;-67
2022/06/05 06:55:24;;;;;;;7.05;3.67;;;;;;;20.22;52.18;101205.91;6028970;28;20378;-66
2022/06/05 06:58:19;;;;;;;8.23;3.87;;;;;;;20.38;52.44;101200.28;6028878;28;20031;-67
2022/06/05 07:01:15;;;;;;;5.87;3.33;;;;;;;20.66;51.81;101200.22;6031587;28;20128;-67
2022/06/05 07:04:10;;;;;;;8.50;3.67;;;;;;;20.52;52.26;101193.13;6030443;28;20474;-67
2022/06/05 07:07:05;;;;;;;5.70;3.50;;;;;;;20.78;52.07;101196.78;6028462;28;20038;-67
2022/06/05 07:10:01;;;;;;;8.23;3.73;;;;;;;20.76;51.75;101184.53;6028011;28;20104;-67
2022/06/05 07:12:56;;;;;;;7.00;3.53;;;;;;;21.00;51.17;101184.00;6028510;28;20304;-67
2022/06/05 07:15:51;;;;;;;6.47;3.75;;;;;;;20.99;51.70;101174.22;6028400;28;20285;-67
2022/06/05 07:18:47;;;;;;;6.68;4.05;;;;;;;20.53;52.84;101173.19;6032154;28;20468;-67
2022/06/05 07:21:42;;;;;;;8.02;3.83;;;;;;;20.57;52.76;101171.78;6030975;28;20117;-67
2022/06/05 07:24:38;;;;;;;5.50;3.80;;;;;;;20.78;52.36;101150.09;6027997;28;20088;-67
2022/06/05 07:27:33;;;;;;;7.60;3.77;;;;;;;20.84;52.40;101149.28;6038546;28;20499;-67
2022/06/05 07:30:28;;;;;;;5.23;3.53;;;;;;;20.96;52.39;101147.66;6025884;28;20031;-67
2022/06/05 07:33:24;;;;;;;7.35;3.42;;;;;;;20.90;51.85;101143.06;6028163;28;20122;-67
2022/06/05 07:36:20;;;;;;;6.80;3.53;;;;;;;21.19;51.26;101153.56;6028161;28;20045;-65
2022/06/05 07:39:16;;;;;;;6.07;4.10;;;;;;;21.28;50.71;101152.31;6027764;28;20022;-67
2022/06/05 07:42:11;;;;;;;8.18;4.10;;;;;;;21.28;51.05;101151.50;6028198;28;20089;-67
2022/06/05 07:45:09;;;;;;;5.03;3.55;;;;;;;21.63;50.55;101146.78;6038411;28;20462;-68
2022/06/05 07:48:05;;;;;;;6.25;3.53;;;;;;;21.54;50.01;101134.50;6030873;28;20042;-67
2022/06/05 07:54:28;;;;;;;6.25;3.47;;;;;;;21.43;51.46;101154.84;6026368;28;20117;-67
2022/06/05 07:57:23;;;;;;;6.88;3.85;;;;;;;21.89;49.66;101136.81;6033077;28;20485;-67
2022/06/05 08:00:18;;;;;;;5.57;3.70;;;;;;;22.18;49.39;101153.59;6026141;28;20084;-67
2022/06/05 08:03:14;;;;;;;5.60;3.38;;;;;;;22.10;49.28;101146.53;6035437;28;20787;-66
2022/06/05 08:06:10;;;;;;;7.20;3.87;;;;;;;22.30;50.44;101131.13;6036247;28;20046;-67
2022/06/05 08:09:08;;;;;;;5.30;3.30;;;;;;;22.52;49.39;101134.38;6031463;28;20034;-67
2022/06/05 08:12:05;;;;;;;5.05;3.58;;;;;;;22.11;50.07;101129.31;6027759;28;20034;-67
2022/06/05 08:15:04;;;;;;;5.65;3.53;;;;;;;22.40;48.79;101120.69;6026177;28;20049;-67
2022/06/05 08:17:59;;;;;;;6.38;3.38;;;;;;;22.19;49.24;101130.94;6045539;28;20108;-67
2022/06/05 08:20:55;;;;;;;5.17;3.30;;;;;;;22.28;48.76;101126.97;6027457;28;20042;-67
2022/06/05 08:23:50;;;;;;;5.93;3.60;;;;;;;22.23;49.47;101113.28;6038868;28;20840;-67
2022/06/05 08:26:45;;;;;;;6.47;3.73;;;;;;;22.44;49.61;101111.13;6032880;28;20297;-68
2022/06/05 08:29:41;;;;;;;6.03;3.47;;;;;;;22.25;48.84;101109.31;6033843;28;20281;-67
2022/06/05 08:32:36;;;;;;;8.95;3.40;;;;;;;22.23;50.14;101103.28;6029861;28;20456;-67
2022/06/05 08:35:31;;;;;;;5.50;3.27;;;;;;;22.38;49.52;101098.47;6029267;28;20049;-67
2022/06/05 08:41:52;;;;;;;5.45;3.63;;;;;;;22.45;48.85;101091.16;6026959;28;20034;-67
2022/06/05 08:44:58;;;;;;;5.78;3.20;;;;;;;22.82;48.70;101086.00;6026692;28;20030;-67
2022/06/05 08:47:59;;;;;;;5.85;3.90;;;;;;;22.86;48.92;101076.41;6051144;28;20041;-67
2022/06/05 08:50:58;;;;;;;5.40;3.78;;;;;;;23.06;48.28;101082.53;6037209;28;20038;-67
2022/06/05 08:53:58;;;;;;;5.80;3.50;;;;;;;23.03;48.17;101080.25;6027253;28;20483;-67
2022/06/05 08:57:00;;;;;;;10.45;4.15;;;;;;;23.00;48.47;101077.97;6034165;28;20092;-67
2022/06/05 09:00:19;;;;;;;5.32;3.50;;;;;;;23.16;48.84;101079.31;6025034;28;20034;-67
2022/06/05 09:03:19;;;;;;;5.25;3.60;;;;;;;23.12;47.62;101078.97;6037406;28;20532;-65
2022/06/05 09:06:29;;;;;;;5.47;3.95;;;;;;;22.85;48.85;101074.75;6028621;28;20034;-68
2022/06/05 09:09:39;;;;;;;5.72;3.70;;;;;;;22.94;47.68;101073.44;6048376;28;20038;-67
2022/06/05 09:12:45;;;;;;;5.82;3.92;;;;;;;23.01;48.23;101085.91;6025176;28;20035;-68
2022/06/05 09:15:49;;;;;;;5.85;3.90;;;;;;;23.07;47.53;101070.66;6042885;28;20034;-67
2022/06/05 09:18:46;;;;;;;6.40;4.88;;;;;;;23.02;47.56;101059.66;6028802;28;20033;-67
2022/06/05 09:21:50;;;;;;;6.20;3.83;;;;;;;22.88;48.68;101069.72;6023629;28;20026;-67
2022/06/05 09:24:48;;;;;;;5.47;3.55;;;;;;;22.93;48.88;101077.22;6026891;28;20042;-68
2022/06/05 09:27:59;;;;;;;4.95;3.40;;;;;;;22.97;47.29;101071.13;6027408;28;20031;-67
2022/06/05 09:31:25;;;;;;;5.57;3.40;;;;;;;23.17;47.70;101057.47;6047281;28;20030;-68
2022/06/05 09:34:34;;;;;;;5.32;3.50;;;;;;;23.33;46.97;101046.09;6031603;28;20034;-67
2022/06/05 09:37:38;;;;;;;5.45;4.05;;;;;;;23.30;46.87;101051.13;6025257;28;20034;-67
2022/06/05 09:40:35;;;;;;;5.32;3.20;;;;;;;23.37;46.64;101052.75;6024377;28;20038;-67
2022/06/05 09:43:53;;;;;;;6.13;4.05;;;;;;;23.37;46.44;101049.19;6025174;28;20069;-67
2022/06/05 09:46:56;;;;;;;7.03;3.70;;;;;;;23.49;46.16;101033.91;6055768;28;20037;-67
2022/06/05 09:49:57;;;;;;;7.45;3.70;;;;;;;23.49;45.89;101042.84;6024882;28;20034;-67
2022/06/05 09:52:52;;;;;;;6.72;3.28;;;;;;;23.64;46.40;101035.19;6030552;28;20058;-67
2022/06/05 09:56:16;;;;;;;5.28;3.55;;;;;;;23.36;45.73;101036.69;6029736;28;20030;-68
2022/06/05 09:59:19;;;;;;;5.93;3.42;;;;;;;23.55;46.32;101039.28;6029526;28;20096;-68
2022/06/05 10:02:16;;;;;;;6.43;3.28;;;;;;;23.75;46.27;101028.25;6025829;28;20039;-67
2022/06/05 10:05:24;;;;;;;7.82;4.10;;;;;;;24.11;44.68;101024.72;6030294;28;20048;-67
2022/06/05 10:08:22;;;;;;;4.75;4.00;;;;;;;24.28;45.17;101013.03;6031763;28;20037;-68
2022/06/05 10:11:24;;;;;;;5.15;3.20;;;;;;;23.98;43.96;101008.59;6029676;28;20038;-68
2022/06/05 10:14:42;;;;;;;4.85;3.70;;;;;;;23.98;44.52;101022.13;6025805;28;20038;-68
2022/06/05 10:17:41;;;;;;;5.47;3.60;;;;;;;24.10;44.79;101002.22;6025879;28;20609;-68
2022/06/05 10:21:01;;;;;;;7.68;3.53;;;;;;;24.49;44.42;101009.00;6025550;28;20122;-68
2022/06/05 10:24:02;;;;;;;6.90;3.15;;;;;;;24.40;44.01;100996.84;6026645;28;20049;-67
2022/06/05 10:26:59;;;;;;;6.70;3.80;;;;;;;24.40;44.50;100979.72;6025702;28;20034;-68
2022/06/05 10:29:56;;;;;;;6.45;3.67;;;;;;;24.86;44.23;100982.63;6046618;28;20525;-67
2022/06/05 10:33:01;;;;;;;6.85;3.30;;;;;;;24.80;44.05;100978.94;6047430;28;20379;-67
2022/06/05 10:36:13;;;;;;;5.50;3.40;;;;;;;24.65;43.34;100956.81;6031740;28;20037;-67
2022/06/05 10:39:35;;;;;;;4.82;3.25;;;;;;;24.87;43.26;100956.31;6025671;28;20614;-67
2022/06/05 10:42:37;;;;;;;6.22;4.00;;;;;;;24.73;42.63;100947.53;6049863;28;20041;-67
2022/06/05 10:45:39;;;;;;;4.40;3.60;;;;;;;24.69;42.82;100949.88;6030938;28;20037;-67
2022/06/05 10:48:45;;;;;;;8.48;3.80;;;;;;;25.15;42.34;100946.41;6038709;28;20065;-67
2022/06/05 10:51:58;;;;;;;5.05;3.38;;;;;;;25.21;41.91;100945.47;6046668;28;20037;-68
2022/06/05 10:55:06;;;;;;;5.10;3.80;;;;;;;25.41;41.62;100958.69;6030329;28;20077;-68
2022/06/05 10:58:12;;;;;;;6.18;3.67;;;;;;;25.32;42.14;100946.53;6041030;28;20084;-67
2022/06/05 11:01:30;;;;;;;6.38;3.63;;;;;;;25.24;41.96;100952.31;6029956;28;20037;-67
2022/06/05 11:04:57;;;;;;;4.60;3.67;;;;;;;25.06;42.55;100960.59;6027990;28;20042;-67
2022/06/05 11:08:01;;;;;;;7.03;3.67;;;;;;;24.94;42.68;100951.59;6029933;28;20030;-68
2022/06/05 11:14:39;;;;;;;7.93;4.07;;;;;;;24.98;42.58;100948.16;6035020;28;20493;-67
2022/06/05 11:17:51;;;;;;;4.93;4.15;;;;;;;25.32;41.67;100943.81;6028415;28;20039;-67
2022/06/05 11:20:54;;;;;;;6.95;3.95;;;;;;;25.47;42.01;100925.16;6026092;28;20030;-67
2022/06/05 11:23:53;;;;;;;6.63;3.50;;;;;;;25.48;42.53;100921.41;6026804;28;20030;-68
2022/06/05 11:26:54;;;;;;;8.98;3.92;;;;;;;25.25;41.45;100924.09;6027622;28;20541;-68
2022/06/05 11:30:06;;;;;;;5.32;3.70;;;;;;;25.43;42.80;100913.09;6050115;28;20061;-67
2022/06/05 11:33:23;;;;;;;5.88;4.43;;;;;;;25.29;41.72;100909.00;6019459;28;20042;-68
2022/06/05 11:36:49;;;;;;;4.60;4.10;;;;;;;25.34;42.60;100900.94;6029643;28;20048;-68
2022/06/05 11:40:10;;;;;;;6.72;3.88;;;;;;;25.67;41.73;100881.31;6022842;28;20105;-67
2022/06/05 11:43:23;;;;;;;5.60;4.35;;;;;;;25.25;42.72;100861.63;6035555;28;20150;-68
2022/06/05 11:46:23;;;;;;;5.10;4.10;;;;;;;25.40;42.03;100845.69;6032193;28;20053;-68
2022/06/05 11:49:24;;;;;;;5.80;3.75;;;;;;;25.42;42.48;100848.97;6036769;28;20041;-68
2022/06/05 11:52:38;;;;;;;6.15;4.20;;;;;;;25.27;42.94;100843.25;6024148;28;20084;-68
2022/06/05 11:55:57;;;;;;;10.02;6.93;;;;;;;25.25;42.26;100831.78;6026201;28;20042;-68
2022/06/05 11:59:11;;;;;;;8.63;5.22;;;;;;;25.48;41.70;100830.94;6030074;28;20026;-68
2022/06/05 12:02:09;;;;;;;6.72;4.28;;;;;;;25.80;41.29;100827.50;6026051;28;20121;-67
2022/06/05 12:05:12;;;;;;;4.18;3.78;;;;;;;25.84;41.35;100827.84;6027291;28;20034;-67
2022/06/05 12:08:11;;;;;;;6.38;4.20;;;;;;;25.77;41.15;100810.84;6025476;28;20403;-67
2022/06/05 12:11:18;;;;;;;5.25;3.83;;;;;;;25.60;41.22;100805.38;6026257;28;20035;-66
2022/06/05 12:14:31;;;;;;;5.95;3.40;;;;;;;26.24;39.72;100797.88;6042065;28;20034;-67
2022/06/05 12:17:41;;;;;;;8.75;4.30;;;;;;;26.26;40.09;100796.53;6027013;28;20026;-67
2022/06/05 12:20:54;;;;;;;6.32;3.85;;;;;;;26.03;39.21;100791.25;6042728;28;20113;-67
2022/06/05 12:24:06;;;;;;;6.13;3.92;;;;;;;26.16;38.32;100799.09;6028866;28;20042;-67
2022/06/05 12:27:20;;;;;;;5.13;3.88;;;;;;;26.11;39.63;100792.72;6025126;28;20034;-68
2022/06/05 12:30:23;;;;;;;5.95;4.13;;;;;;;26.23;39.54;100791.59;6026087;28;20062;-67
2022/06/05 12:33:24;;;;;;;5.38;3.72;;;;;;;26.04;39.48;100785.53;6025314;28;20034;-67
2022/06/05 12:36:30;;;;;;;5.68;4.32;;;;;;;25.84;40.41;100774.31;6030636;28;20108;-67
2022/06/05 12:39:36;;;;;;;5.00;3.97;;;;;;;25.58;40.16;100769.47;6024199;28;20041;-68
2022/06/05 12:42:47;;;;;;;9.73;3.95;;;;;;;26.01;39.58;100769.72;6025356;28;20066;-68
2022/06/05 12:45:43;;;;;;;4.53;3.70;;;;;;;25.69;40.26;100765.88;6024494;28;20026;-67
2022/06/05 12:48:39;;;;;;;4.45;3.90;;;;;;;25.68;40.42;100758.00;6026012;28;20041;-67
2022/06/05 12:51:34;;;;;;;4.07;3.53;;;;;;;25.94;39.96;100757.34;6037898;28;20030;-68
2022/06/05 12:54:37;;;;;;;5.43;4.03;;;;;;;25.94;40.05;100758.19;6041331;28;20030;-67
2022/06/05 12:57:46;;;;;;;4.30;3.65;;;;;;;26.06;40.04;100743.69;6041013;28;20182;-67
2022/06/05 13:00:49;;;;;;;5.57;4.25;;;;;;;25.96;39.21;100758.75;6023616;28;20062;-68
2022/06/05 13:03:59;;;;;;;8.80;3.60;;;;;;;26.32;39.40;100745.78;6040547;28;20153;-68
2022/06/05 13:07:05;;;;;;;6.32;3.90;;;;;;;25.86;39.16;100745.00;6040314;28;20074;-68
2022/06/05 13:10:06;;;;;;;5.22;3.40;;;;;;;26.09;39.59;100740.50;6014384;28;20393;-68
2022/06/05 13:13:12;;;;;;;5.43;3.38;;;;;;;25.95;39.51;100738.06;6023709;28;20441;-68
2022/06/05 13:16:28;;;;;;;5.85;4.10;;;;;;;26.07;39.46;100734.44;6021230;28;20114;-68
2022/06/05 13:19:23;;;;;;;6.78;3.40;;;;;;;26.43;38.66;100739.41;6022202;28;20497;-68
2022/06/05 13:22:46;;;;;;;5.80;3.95;;;;;;;26.29;39.27;100732.66;6024776;28;20033;-68
2022/06/05 13:26:01;;;;;;;5.18;3.30;;;;;;;26.49;38.89;100728.38;6025516;28;20033;-67
2022/06/05 13:29:11;;;;;;;5.45;4.07;;;;;;;26.56;39.69;100715.41;6040223;28;20026;-68
2022/06/05 13:32:16;;;;;;;5.07;3.80;;;;;;;26.62;38.57;100705.41;6023810;28;20038;-68
2022/06/05 13:35:33;;;;;;;4.28;3.42;;;;;;;26.53;38.65;100696.03;6039799;28;20052;-68
2022/06/05 13:38:57;;;;;;;7.30;3.80;;;;;;;26.53;39.30;100698.75;6025075;28;20038;-68
2022/06/05 13:42:03;;;;;;;5.13;3.95;;;;;;;26.31;39.00;100697.91;6022928;28;20050;-68
2022/06/05 13:44:58;;;;;;;5.93;4.20;;;;;;;26.17;39.33;100683.00;6027027;28;20066;-67
2022/06/05 13:48:08;;;;;;;4.18;3.60;;;;;;;26.30;40.13;100685.38;6024321;28;20030;-67
2022/06/05 13:51:09;;;;;;;8.05;4.10;;;;;;;26.04;39.78;100682.22;6017303;28;20478;-67
2022/06/05 13:54:39;;;;;;;5.95;3.67;;;;;;;25.89;39.79;100684.72;6023828;28;20041;-68
2022/06/05 13:57:44;;;;;;;6.13;4.20;;;;;;;26.04;39.55;100678.69;6024951;28;20049;-67
2022/06/05 14:01:07;;;;;;;4.60;2.90;;;;;;;26.10;40.00;100679.59;6048754;28;20402;-68
2022/06/05 14:04:18;;;;;;;6.47;4.20;;;;;;;25.85;40.56;100680.00;6012061;28;20053;-68
2022/06/05 14:07:19;;;;;;;5.22;3.97;;;;;;;25.94;41.29;100675.81;6025134;28;20458;-68
2022/06/05 14:10:21;;;;;;;5.80;4.00;;;;;;;25.85;40.84;100678.13;6022968;28;20026;-67
2022/06/05 14:13:16;;;;;;;6.78;4.22;;;;;;;25.78;41.08;100673.94;6037484;28;20133;-67
2022/06/05 14:16:12;;;;;;;5.87;3.90;;;;;;;25.64;41.38;100659.00;6029891;28;20502;-68
2022/06/05 14:19:18;;;;;;;4.60;3.78;;;;;;;25.63;41.21;100665.53;6029339;28;20099;-67